createdAt,value
2017-05-24T00:01:14.802Z,79.10
2017-05-24T00:03:42.674Z,78.70
2017-05-24T00:06:10.517Z,79.10
2017-05-24T00:08:38.365Z,79.50
2017-05-24T00:11:06.248Z,79.60
2017-05-24T00:13:33.700Z,79.60
2017-05-24T00:16:01.547Z,78.60
2017-05-24T00:18:29.426Z,78.70
2017-05-24T00:20:56.885Z,78.80
2017-05-24T00:23:24.334Z,79.30
2017-05-24T00:25:51.825Z,79.50
2017-05-24T00:28:19.660Z,79.50
2017-05-24T00:30:47.114Z,79.50
2017-05-24T00:33:14.987Z,79.10
2017-05-24T00:35:42.836Z,79.10
2017-05-24T00:38:10.676Z,79.50
2017-05-24T00:40:38.372Z,79.50
2017-05-24T00:43:06.212Z,78.20
2017-05-24T00:45:34.057Z,78.00
2017-05-24T00:48:01.910Z,78.50
2017-05-24T00:50:29.357Z,78.50
2017-05-24T00:52:57.373Z,78.60
2017-05-24T00:55:24.857Z,78.60
2017-05-24T00:57:52.700Z,78.30
2017-05-24T01:00:20.549Z,78.90
2017-05-24T01:02:48.421Z,79.30
2017-05-24T01:05:15.871Z,79.30
2017-05-24T01:07:44.258Z,78.50
2017-05-24T01:10:11.916Z,78.50
2017-05-24T01:12:39.766Z,78.80
2017-05-24T01:15:07.212Z,78.80
2017-05-24T01:17:35.088Z,78.40
2017-05-24T01:20:02.942Z,78.40
2017-05-24T01:22:30.384Z,78.40
2017-05-24T01:24:58.272Z,79.20
2017-05-24T01:27:26.127Z,78.50
2017-05-24T01:29:53.969Z,78.50
2017-05-24T01:32:22.088Z,78.40
2017-05-24T01:34:49.535Z,78.40
2017-05-24T01:37:17.384Z,78.60
2017-05-24T01:39:44.869Z,78.60
2017-05-24T01:42:12.707Z,78.20
2017-05-24T01:44:40.159Z,78.20
2017-05-24T01:47:08.356Z,77.90
2017-05-24T01:49:36.207Z,78.50
2017-05-24T01:52:04.051Z,78.20
2017-05-24T01:54:32.157Z,78.10
2017-05-24T01:57:00.003Z,78.10
2017-05-24T01:59:27.456Z,78.10
2017-05-24T02:01:55.553Z,77.80
2017-05-24T02:04:23.398Z,77.60
2017-05-24T02:06:50.844Z,77.60
2017-05-24T02:09:18.728Z,77.90
2017-05-24T02:11:46.572Z,78.00
2017-05-24T02:14:14.428Z,77.80
2017-05-24T02:16:42.293Z,77.30
2017-05-24T02:19:10.141Z,76.80
2017-05-24T02:21:37.979Z,77.30
2017-05-24T02:24:05.839Z,77.50
2017-05-24T02:26:33.680Z,77.30
2017-05-24T02:29:01.179Z,77.30
2017-05-24T02:31:29.095Z,76.60
2017-05-24T02:33:56.586Z,76.60
2017-05-24T02:36:24.458Z,77.00
2017-05-24T02:38:51.970Z,77.00
2017-05-24T02:41:19.846Z,78.10
2017-05-24T02:43:47.735Z,77.60
2017-05-24T02:46:15.633Z,77.10
2017-05-24T02:48:43.498Z,77.10
2017-05-24T02:51:11.370Z,77.10
2017-05-24T02:53:39.272Z,77.20
2017-05-24T02:56:07.145Z,77.10
2017-05-24T02:58:35.024Z,78.10
2017-05-24T03:01:02.943Z,77.10
2017-05-24T03:03:31.222Z,77.10
2017-05-24T03:05:59.098Z,77.60
2017-05-24T03:08:27.210Z,77.60
2017-05-24T03:10:54.702Z,77.60
2017-05-24T03:13:22.572Z,77.40
2017-05-24T03:15:50.457Z,77.10
2017-05-24T03:18:18.325Z,77.00
2017-05-24T03:20:46.197Z,76.90
2017-05-24T03:23:14.303Z,77.80
2017-05-24T03:25:42.192Z,77.40
2017-05-24T03:28:09.666Z,77.40
2017-05-24T03:30:37.489Z,77.20
2017-05-24T03:33:04.971Z,76.80
2017-05-24T03:35:32.841Z,77.10
2017-05-24T03:38:00.977Z,77.20
2017-05-24T03:40:28.853Z,77.40
2017-05-24T03:42:56.726Z,77.40
2017-05-24T03:45:25.496Z,77.20
2017-05-24T03:47:53.370Z,77.00
2017-05-24T03:50:21.265Z,76.50
2017-05-24T03:52:49.174Z,76.60
2017-05-24T03:55:16.649Z,76.60
2017-05-24T03:57:44.544Z,76.60
2017-05-24T04:00:12.274Z,76.70
2017-05-24T04:02:40.159Z,76.60
2017-05-24T04:05:08.049Z,76.50
2017-05-24T04:07:35.954Z,76.50
2017-05-24T04:10:03.841Z,76.00
2017-05-24T04:12:31.737Z,76.60
2017-05-24T04:14:59.635Z,76.50
2017-05-24T04:17:27.110Z,76.50
2017-05-24T04:19:54.982Z,76.80
2017-05-24T04:22:22.877Z,76.30
2017-05-24T04:24:50.749Z,76.90
2017-05-24T04:27:18.635Z,76.50
2017-05-24T04:29:46.854Z,76.40
2017-05-24T04:32:14.726Z,76.40
2017-05-24T04:34:42.616Z,76.20
2017-05-24T04:37:10.754Z,75.80
2017-05-24T04:39:38.636Z,76.50
2017-05-24T04:42:06.133Z,76.60
2017-05-24T04:44:34.249Z,75.90
2017-05-24T04:47:02.150Z,75.90
2017-05-24T04:49:29.634Z,75.90
2017-05-24T04:51:57.554Z,74.60
2017-05-24T04:54:25.425Z,74.50
2017-05-24T04:56:52.912Z,74.50
2017-05-24T04:59:21.139Z,75.00
2017-05-24T05:01:49.025Z,74.90
2017-05-24T05:04:16.540Z,74.90
2017-05-24T05:06:44.429Z,74.30
2017-05-24T05:09:12.329Z,74.20
2017-05-24T05:11:40.217Z,73.90
2017-05-24T05:14:08.162Z,74.10
2017-05-24T05:16:36.043Z,74.10
2017-05-24T05:19:03.913Z,74.30
2017-05-24T05:21:31.834Z,74.40
2017-05-24T05:23:59.701Z,74.20
2017-05-24T05:26:27.185Z,74.20
2017-05-24T05:28:54.789Z,74.20
2017-05-24T05:31:22.662Z,74.30
2017-05-24T05:33:50.546Z,73.90
2017-05-24T05:36:18.460Z,74.10
2017-05-24T05:38:46.353Z,73.80
2017-05-24T05:41:14.245Z,73.60
2017-05-24T05:43:42.148Z,74.30
2017-05-24T05:46:10.026Z,73.20
2017-05-24T05:48:37.501Z,73.20
2017-05-24T05:51:05.673Z,73.40
2017-05-24T05:53:33.164Z,73.40
2017-05-24T05:56:01.441Z,73.20
2017-05-24T05:58:29.352Z,73.10
2017-05-24T06:00:57.273Z,72.70
2017-05-24T06:03:24.768Z,72.70
2017-05-24T06:05:52.797Z,73.10
2017-05-24T06:08:20.695Z,73.00
2017-05-24T06:10:48.564Z,72.70
2017-05-24T06:13:16.553Z,72.90
2017-05-24T06:15:44.430Z,73.20
2017-05-24T06:18:12.332Z,72.80
2017-05-24T06:20:40.244Z,73.00
2017-05-24T06:23:07.913Z,72.90
2017-05-24T06:25:35.806Z,72.40
2017-05-24T06:28:04.765Z,71.50
2017-05-24T06:30:32.653Z,71.50
2017-05-24T06:33:00.522Z,70.40
2017-05-24T06:35:28.795Z,71.20
2017-05-24T06:37:56.704Z,70.60
2017-05-24T06:40:24.596Z,69.90
2017-05-24T06:42:52.898Z,70.20
2017-05-24T06:45:20.798Z,70.30
2017-05-24T06:47:48.670Z,70.00
2017-05-24T06:50:16.710Z,69.30
2017-05-24T06:52:44.754Z,68.50
2017-05-24T06:55:12.240Z,68.50
2017-05-24T06:57:40.195Z,68.90
2017-05-24T07:00:08.088Z,68.60
2017-05-24T07:02:35.980Z,68.20
2017-05-24T07:05:03.904Z,68.20
2017-05-24T07:07:31.781Z,68.20
2017-05-24T07:09:59.654Z,68.00
2017-05-24T07:12:27.869Z,67.80
2017-05-24T07:14:55.747Z,67.50
2017-05-24T07:17:23.653Z,68.40
2017-05-24T07:19:51.574Z,68.20
2017-05-24T07:22:19.531Z,68.20
2017-05-24T07:24:47.028Z,68.20
2017-05-24T07:27:15.770Z,65.90
2017-05-24T07:29:43.687Z,64.90
2017-05-24T07:32:11.591Z,65.80
2017-05-24T07:34:39.379Z,65.80
2017-05-24T07:37:07.249Z,66.30
2017-05-24T07:39:34.723Z,66.30
2017-05-24T07:42:02.613Z,66.10
2017-05-24T07:44:30.484Z,65.90
2017-05-24T07:46:58.363Z,65.40
2017-05-24T07:49:26.285Z,64.00
2017-05-24T07:51:53.769Z,64.00
2017-05-24T07:54:21.645Z,63.40
2017-05-24T07:56:49.900Z,63.10
2017-05-24T07:59:17.813Z,62.90
2017-05-24T08:01:45.700Z,62.50
2017-05-24T08:04:13.608Z,61.10
2017-05-24T08:06:41.481Z,61.50
2017-05-24T08:09:09.363Z,59.30
2017-05-24T08:11:37.284Z,59.80
2017-05-24T08:14:04.791Z,59.80
2017-05-24T08:16:32.275Z,59.20
2017-05-24T08:19:00.187Z,61.60
2017-05-24T08:21:28.078Z,63.80
2017-05-24T08:23:55.582Z,63.80
2017-05-24T08:26:23.501Z,63.00
2017-05-24T08:28:51.369Z,62.00
2017-05-24T08:31:19.242Z,60.80
2017-05-24T08:33:47.149Z,59.90
2017-05-24T08:36:15.024Z,59.40
2017-05-24T08:38:42.898Z,59.60
2017-05-24T08:41:10.800Z,60.60
2017-05-24T08:43:38.688Z,60.90
2017-05-24T08:46:06.560Z,61.00
2017-05-24T08:48:34.468Z,60.70
2017-05-24T08:51:02.332Z,60.90
2017-05-24T08:53:30.196Z,60.60
2017-05-24T08:55:58.135Z,60.00
2017-05-24T08:58:26.009Z,58.80
2017-05-24T09:00:53.881Z,60.00
2017-05-24T09:03:21.977Z,61.00
2017-05-24T09:05:49.841Z,61.60
2017-05-24T09:08:17.708Z,62.00
2017-05-24T09:10:46.506Z,60.90
2017-05-24T09:13:14.381Z,60.30
2017-05-24T09:15:42.253Z,59.80
2017-05-24T09:18:10.160Z,60.00
2017-05-24T09:20:37.640Z,60.00
2017-05-24T09:23:05.531Z,60.60
2017-05-24T09:25:33.800Z,61.00
2017-05-24T09:28:01.294Z,61.00
2017-05-24T09:30:29.171Z,61.20
2017-05-24T09:32:57.075Z,60.50
2017-05-24T09:35:24.949Z,61.00
2017-05-24T09:37:52.818Z,61.00
2017-05-24T09:40:20.969Z,61.20
2017-05-24T09:42:48.441Z,61.30
2017-05-24T09:45:16.310Z,62.20
2017-05-24T09:47:43.882Z,62.20
2017-05-24T09:50:11.769Z,62.00
2017-05-24T09:52:39.642Z,61.70
2017-05-24T09:55:07.326Z,61.70
2017-05-24T09:57:35.203Z,60.80
2017-05-24T10:00:03.076Z,58.50
2017-05-24T10:02:30.965Z,57.60
2017-05-24T10:04:58.843Z,57.30
2017-05-24T10:07:26.713Z,57.30
2017-05-24T10:09:54.841Z,57.80
2017-05-24T10:12:22.724Z,57.60
2017-05-24T10:14:50.631Z,58.30
2017-05-24T10:17:18.332Z,58.30
2017-05-24T10:19:46.205Z,57.30
2017-05-24T10:22:14.086Z,56.60
2017-05-24T10:24:41.995Z,56.60
2017-05-24T10:27:09.861Z,56.20
2017-05-24T10:29:37.348Z,56.30
2017-05-24T10:32:04.876Z,57.50
2017-05-24T10:34:32.745Z,58.10
2017-05-24T10:37:00.614Z,59.70
2017-05-24T10:39:28.707Z,59.50
2017-05-24T10:42:02.319Z,59.80
2017-05-24T10:44:30.217Z,60.40
2017-05-24T10:46:58.125Z,60.50
2017-05-24T10:49:26.002Z,59.30
2017-05-24T10:51:53.514Z,59.30
2017-05-24T10:54:20.995Z,57.80
2017-05-24T10:56:48.899Z,56.60
2017-05-24T10:59:16.651Z,56.60
2017-05-24T11:01:45.417Z,57.10
2017-05-24T11:04:13.316Z,58.00
2017-05-24T11:06:41.237Z,57.90
2017-05-24T11:09:09.124Z,57.10
2017-05-24T11:11:37.028Z,57.20
2017-05-24T11:14:04.806Z,57.20
2017-05-24T11:16:32.676Z,56.90
2017-05-24T11:19:00.847Z,56.90
2017-05-24T11:21:28.735Z,57.70
2017-05-24T11:23:56.640Z,58.60
2017-05-24T11:26:24.525Z,59.10
2017-05-24T11:28:52.411Z,58.60
2017-05-24T11:31:20.295Z,58.80
2017-05-24T11:33:47.780Z,58.80
2017-05-24T11:36:15.634Z,58.60
2017-05-24T11:38:43.507Z,58.90
2017-05-24T11:41:11.369Z,58.60
2017-05-24T11:43:39.479Z,58.60
2017-05-24T11:46:07.556Z,59.60
2017-05-24T11:48:35.433Z,59.10
2017-05-24T11:51:03.334Z,59.60
2017-05-24T11:53:31.711Z,59.90
2017-05-24T11:55:59.593Z,59.60
2017-05-24T11:58:28.570Z,59.60
2017-05-24T12:00:56.473Z,58.80
2017-05-24T12:03:24.348Z,58.90
2017-05-24T12:05:52.283Z,58.80
2017-05-24T12:08:19.800Z,58.90
2017-05-24T12:10:47.296Z,58.70
2017-05-24T12:13:15.569Z,58.90
2017-05-24T12:15:43.497Z,59.00
2017-05-24T12:18:11.381Z,59.40
2017-05-24T12:20:39.364Z,59.40
2017-05-24T12:23:07.256Z,59.30
2017-05-24T12:25:34.733Z,59.40
2017-05-24T12:28:02.902Z,58.20
2017-05-24T12:30:30.787Z,58.40
2017-05-24T12:32:58.678Z,58.40
2017-05-24T12:35:26.567Z,58.80
2017-05-24T12:37:54.438Z,58.80
2017-05-24T12:40:22.320Z,59.20
2017-05-24T12:42:50.041Z,59.20
2017-05-24T12:45:17.534Z,59.90
2017-05-24T12:47:45.498Z,59.30
2017-05-24T12:50:13.398Z,60.10
2017-05-24T12:52:41.273Z,60.00
2017-05-24T12:55:09.161Z,60.60
2017-05-24T12:57:37.848Z,61.10
2017-05-24T13:00:05.360Z,61.10
2017-05-24T13:02:33.272Z,60.80
2017-05-24T13:05:02.096Z,61.50
2017-05-24T13:07:29.978Z,61.80
2017-05-24T13:09:57.860Z,61.10
2017-05-24T13:12:26.157Z,61.80
2017-05-24T13:14:54.046Z,61.50
2017-05-24T13:17:21.959Z,61.50
2017-05-24T13:19:49.476Z,61.50
2017-05-24T13:22:17.368Z,59.90
2017-05-24T13:24:45.241Z,60.50
2017-05-24T13:27:13.036Z,60.50
2017-05-24T13:29:40.541Z,61.50
2017-05-24T13:32:08.437Z,61.60
2017-05-24T13:34:36.372Z,61.40
2017-05-24T13:37:04.277Z,61.60
2017-05-24T13:39:32.169Z,61.60
2017-05-24T13:42:00.325Z,61.70
2017-05-24T13:44:27.834Z,61.70
2017-05-24T13:46:55.723Z,60.60
2017-05-24T13:49:24.088Z,60.00
2017-05-24T13:51:51.993Z,59.40
2017-05-24T13:54:19.883Z,59.90
2017-05-24T13:56:47.803Z,59.90
2017-05-24T13:59:15.301Z,59.90
2017-05-24T14:01:43.185Z,59.70
2017-05-24T14:04:11.104Z,60.30
2017-05-24T14:06:38.998Z,60.20
2017-05-24T14:09:06.905Z,60.80
2017-05-24T14:11:34.590Z,60.80
2017-05-24T14:14:02.462Z,60.50
2017-05-24T14:16:30.338Z,61.40
2017-05-24T14:18:58.393Z,61.50
2017-05-24T14:21:26.303Z,61.50
2017-05-24T14:23:53.792Z,61.50
2017-05-24T14:26:21.707Z,62.20
2017-05-24T14:28:49.608Z,62.00
2017-05-24T14:31:17.500Z,62.40
2017-05-24T14:33:45.513Z,62.60
2017-05-24T14:36:13.394Z,62.30
2017-05-24T14:38:41.294Z,63.20
2017-05-24T14:41:09.364Z,62.40
2017-05-24T14:43:37.257Z,62.30
2017-05-24T14:46:05.131Z,61.80
2017-05-24T14:48:33.348Z,62.00
2017-05-24T14:51:00.825Z,62.10
2017-05-24T14:53:28.302Z,62.30
2017-05-24T14:55:56.231Z,61.80
2017-05-24T14:58:23.729Z,61.70
2017-05-24T15:00:51.652Z,62.20
2017-05-24T15:03:19.547Z,61.00
2017-05-24T15:05:47.447Z,61.10
2017-05-24T15:08:15.323Z,61.00
2017-05-24T15:10:43.262Z,61.60
2017-05-24T15:13:11.173Z,62.80
2017-05-24T15:15:39.050Z,64.10
2017-05-24T15:18:06.950Z,65.00
2017-05-24T15:20:35.432Z,64.60
2017-05-24T15:23:03.297Z,63.70
2017-05-24T15:25:30.814Z,63.70
2017-05-24T15:27:58.701Z,64.20
2017-05-24T15:30:26.589Z,64.00
2017-05-24T15:32:54.516Z,62.40
2017-05-24T15:35:22.387Z,62.00
2017-05-24T15:37:49.864Z,62.00
2017-05-24T15:40:17.788Z,61.80
2017-05-24T15:42:45.673Z,61.50
2017-05-24T15:45:13.150Z,61.50
2017-05-24T15:47:41.423Z,62.70
2017-05-24T15:50:09.289Z,63.60
2017-05-24T15:52:36.783Z,63.60
2017-05-24T15:55:04.916Z,64.90
2017-05-24T15:57:32.798Z,64.60
2017-05-24T16:00:01.430Z,64.60
2017-05-24T16:02:29.336Z,63.30
2017-05-24T16:04:57.219Z,63.70
2017-05-24T16:07:24.725Z,63.70
2017-05-24T16:09:52.833Z,64.30
2017-05-24T16:12:21.236Z,64.30
2017-05-24T16:14:49.110Z,64.30
2017-05-24T16:17:17.326Z,63.40
2017-05-24T16:19:45.216Z,62.00
2017-05-24T16:22:13.124Z,62.80
2017-05-24T16:24:41.221Z,63.60
2017-05-24T16:27:09.108Z,64.40
2017-05-24T16:29:36.974Z,63.40
2017-05-24T16:32:04.473Z,63.40
2017-05-24T16:34:31.953Z,63.00
2017-05-24T16:36:59.425Z,63.20
2017-05-24T16:39:27.598Z,62.20
2017-05-24T16:41:55.480Z,62.00
2017-05-24T16:44:23.360Z,63.00
2017-05-24T16:46:51.279Z,63.00
2017-05-24T16:49:19.193Z,62.70
2017-05-24T16:51:47.083Z,63.60
2017-05-24T16:54:14.978Z,64.30
2017-05-24T16:56:43.825Z,63.50
2017-05-24T16:59:11.785Z,63.50
2017-05-24T17:01:39.684Z,63.70
2017-05-24T17:04:07.491Z,63.70
2017-05-24T17:06:35.651Z,64.30
2017-05-24T17:09:03.527Z,65.90
2017-05-24T17:11:31.432Z,66.70
2017-05-24T17:13:59.338Z,66.10
2017-05-24T17:16:27.213Z,65.90
2017-05-24T17:18:55.091Z,66.00
2017-05-24T17:21:23.002Z,66.50
2017-05-24T17:23:52.030Z,66.10
2017-05-24T17:26:19.917Z,65.90
2017-05-24T17:28:48.147Z,66.10
2017-05-24T17:31:16.415Z,66.80
2017-05-24T17:33:43.918Z,66.80
2017-05-24T17:36:11.871Z,67.00
2017-05-24T17:38:39.782Z,66.90
2017-05-24T17:41:07.282Z,66.90
2017-05-24T17:43:35.296Z,67.40
2017-05-24T17:46:03.184Z,67.70
2017-05-24T17:48:31.098Z,68.10
2017-05-24T17:50:59.036Z,68.30
2017-05-24T17:53:27.270Z,68.10
2017-05-24T17:55:55.781Z,68.10
2017-05-24T17:58:24.049Z,68.40
2017-05-24T18:00:52.618Z,67.90
2017-05-24T18:03:20.334Z,67.90
2017-05-24T18:05:48.577Z,68.00
2017-05-24T18:08:16.111Z,68.00
2017-05-24T18:10:44.098Z,67.80
2017-05-24T18:13:13.059Z,67.80
2017-05-24T18:15:40.653Z,67.80
2017-05-24T18:18:09.050Z,68.90
2017-05-24T18:20:37.030Z,68.90
2017-05-24T18:23:04.661Z,68.90
2017-05-24T18:25:33.795Z,69.90
2017-05-24T18:28:02.246Z,70.30
2017-05-24T18:30:30.244Z,70.30
2017-05-24T18:32:58.734Z,71.10
2017-05-24T18:35:28.193Z,72.00
2017-05-24T18:37:57.167Z,71.80
2017-05-24T18:40:26.269Z,71.80
2017-05-24T18:42:56.460Z,73.10
2017-05-24T18:45:25.682Z,72.60
2017-05-24T18:47:54.171Z,72.60
2017-05-24T18:50:23.558Z,74.00
2017-05-24T18:52:52.442Z,73.50
2017-05-24T18:55:21.782Z,73.50
2017-05-24T18:57:50.939Z,73.50
2017-05-24T19:00:19.794Z,73.40
2017-05-24T19:02:48.343Z,73.40
2017-05-24T19:05:17.811Z,75.50
2017-05-24T19:07:46.895Z,75.50
2017-05-24T19:10:15.549Z,75.50
2017-05-24T19:12:44.760Z,76.00
2017-05-24T19:15:14.278Z,76.70
2017-05-24T19:17:42.936Z,76.70
2017-05-24T19:20:12.203Z,77.80
2017-05-24T19:22:41.397Z,77.80
2017-05-24T19:25:10.960Z,78.40
2017-05-24T19:27:40.344Z,77.70
2017-05-24T19:30:09.376Z,77.90
2017-05-24T19:32:38.442Z,78.00
2017-05-24T19:35:08.501Z,78.20
2017-05-24T19:37:38.445Z,78.40
2017-05-24T19:40:07.481Z,78.30
2017-05-24T19:42:36.160Z,78.30
2017-05-24T19:45:06.093Z,79.10
2017-05-24T19:47:37.985Z,79.10
2017-05-24T19:50:07.420Z,79.60
2017-05-24T19:52:36.067Z,79.10
2017-05-24T19:55:05.144Z,79.40
2017-05-24T20:00:08.179Z,79.40
2017-05-24T20:02:37.200Z,79.70
2017-05-24T20:05:08.646Z,80.20
2017-05-24T20:07:38.764Z,79.90
2017-05-24T20:10:07.984Z,80.60
2017-05-24T20:12:37.366Z,80.20
2017-05-24T20:15:08.405Z,80.50
2017-05-24T20:17:38.007Z,80.10
2017-05-24T20:20:07.996Z,80.60
2017-05-24T20:22:37.432Z,80.20
2017-05-24T20:25:06.777Z,80.00
2017-05-24T20:27:36.904Z,81.20
2017-05-24T20:30:05.610Z,81.20
2017-05-24T20:32:34.713Z,81.50
2017-05-24T20:35:03.635Z,81.90
2017-05-24T20:37:32.595Z,82.00
2017-05-24T20:40:02.531Z,82.60
2017-05-24T20:42:31.450Z,82.20
2017-05-24T20:45:00.530Z,82.50
2017-05-24T20:47:29.714Z,83.20
2017-05-24T20:49:59.393Z,83.20
2017-05-24T20:52:28.355Z,82.30
2017-05-24T20:54:57.829Z,81.80
2017-05-24T20:57:26.885Z,81.80
2017-05-24T20:59:56.979Z,82.40
2017-05-24T21:02:26.261Z,82.60
2017-05-24T21:04:55.739Z,83.20
2017-05-24T21:07:24.405Z,83.20
2017-05-24T21:09:56.233Z,82.80
2017-05-24T21:12:24.779Z,82.80
2017-05-24T21:14:53.707Z,82.80
2017-05-24T21:17:22.756Z,83.00
2017-05-24T21:19:51.895Z,83.60
2017-05-24T21:22:21.705Z,83.20
2017-05-24T21:24:50.709Z,83.40
2017-05-24T21:27:19.220Z,83.40
2017-05-24T21:29:48.662Z,84.30
2017-05-24T21:32:18.188Z,84.00
2017-05-24T21:34:48.022Z,84.20
2017-05-24T21:37:17.788Z,83.60
2017-05-24T21:39:46.607Z,83.30
2017-05-24T21:42:15.577Z,83.00
2017-05-24T21:44:44.083Z,83.80
2017-05-24T21:47:12.327Z,83.80
2017-05-24T21:49:40.614Z,83.00
2017-05-24T21:52:08.767Z,83.00
2017-05-24T21:54:36.436Z,83.00
2017-05-24T21:57:04.384Z,84.20
2017-05-24T21:59:31.957Z,84.20
2017-05-24T22:02:00.249Z,84.90
2017-05-24T22:04:28.189Z,84.60
2017-05-24T22:06:56.084Z,84.60
2017-05-24T22:09:24.000Z,86.00
2017-05-24T22:11:51.889Z,85.80
2017-05-24T22:14:19.781Z,85.00
2017-05-24T22:16:47.713Z,84.30
2017-05-24T22:19:15.603Z,83.90
2017-05-24T22:21:43.529Z,84.40
2017-05-24T22:24:11.532Z,83.70
2017-05-24T22:26:39.406Z,84.30
2017-05-24T22:29:09.475Z,84.30
2017-05-24T22:31:37.609Z,85.30
2017-05-24T22:34:05.112Z,85.30
2017-05-24T22:36:33.010Z,85.70
2017-05-24T22:39:00.777Z,85.80
2017-05-24T22:41:28.288Z,85.60
2017-05-24T22:43:56.194Z,85.80
2017-05-24T22:46:24.392Z,86.10
2017-05-24T22:48:52.335Z,86.40
2017-05-24T22:51:20.269Z,86.20
2017-05-24T22:53:48.150Z,86.20
2017-05-24T22:56:16.058Z,86.00
2017-05-24T22:58:43.966Z,86.10
2017-05-24T23:01:11.876Z,86.10
2017-05-24T23:03:39.805Z,86.20
2017-05-24T23:06:07.701Z,86.40
2017-05-24T23:08:35.923Z,85.90
2017-05-24T23:11:03.949Z,85.90
2017-05-24T23:13:31.950Z,85.90
2017-05-24T23:15:59.840Z,85.90
2017-05-24T23:21:01.992Z,86.00
2017-05-24T23:23:30.002Z,85.90
2017-05-24T23:25:57.883Z,85.50
2017-05-24T23:28:26.748Z,85.40
2017-05-24T23:30:54.949Z,86.00
2017-05-24T23:33:22.429Z,86.00
2017-05-24T23:35:50.303Z,86.80
2017-05-24T23:38:18.216Z,87.50
2017-05-24T23:40:46.093Z,87.10
2017-05-24T23:43:13.590Z,87.10
2017-05-24T23:45:41.498Z,88.10
2017-05-24T23:48:09.383Z,87.60
2017-05-24T23:50:37.272Z,87.20
2017-05-24T23:53:05.195Z,87.00
2017-05-24T23:55:33.081Z,87.40
2017-05-24T23:58:00.567Z,87.40
